sensor_id;sensor_type;location;lat;lon;timestamp;pressure;altitude;pressure_sealevel;temperature;humidity
70521;BME280;58442;52.716;23.560;2022-08-07T00:03:10;102167.48;;;14.85;73.79
70521;BME280;58442;52.716;23.560;2022-08-07T00:05:16;102161.88;;;14.81;73.91
70521;BME280;58442;52.716;23.560;2022-08-07T00:07:17;102164.52;;;14.77;73.92
70521;BME280;58442;52.716;23.560;2022-08-07T00:09:19;102155.03;;;14.75;73.95
70521;BME280;58442;52.716;23.560;2022-08-07T00:11:21;102157.31;;;14.73;73.91
70521;BME280;58442;52.716;23.560;2022-08-07T00:13:32;102160.40;;;14.71;73.88
70521;BME280;58442;52.716;23.560;2022-08-07T00:15:33;102159.95;;;14.69;73.83
70521;BME280;58442;52.716;23.560;2022-08-07T00:17:35;102167.23;;;14.65;73.80
70521;BME280;58442;52.716;23.560;2022-08-07T00:19:36;102164.04;;;14.63;73.77
70521;BME280;58442;52.716;23.560;2022-08-07T00:21:46;102172.46;;;14.58;73.70
70521;BME280;58442;52.716;23.560;2022-08-07T00:23:47;102173.15;;;14.55;73.61
70521;BME280;58442;52.716;23.560;2022-08-07T00:25:49;102164.80;;;14.52;73.55
70521;BME280;58442;52.716;23.560;2022-08-07T00:27:51;102166.62;;;14.47;73.53
70521;BME280;58442;52.716;23.560;2022-08-07T00:30:02;102161.80;;;14.44;73.48
70521;BME280;58442;52.716;23.560;2022-08-07T00:32:05;102165.23;;;14.41;73.46
70521;BME280;58442;52.716;23.560;2022-08-07T00:34:06;102168.96;;;14.37;73.47
70521;BME280;58442;52.716;23.560;2022-08-07T00:36:08;102171.56;;;14.33;73.46
70521;BME280;58442;52.716;23.560;2022-08-07T00:38:15;102163.59;;;14.28;73.50
70521;BME280;58442;52.716;23.560;2022-08-07T00:40:16;102168.13;;;14.24;73.63
70521;BME280;58442;52.716;23.560;2022-08-07T00:42:18;102164.13;;;14.21;73.74
70521;BME280;58442;52.716;23.560;2022-08-07T00:44:20;102173.34;;;14.17;73.83
70521;BME280;58442;52.716;23.560;2022-08-07T00:46:30;102169.36;;;14.14;73.94
70521;BME280;58442;52.716;23.560;2022-08-07T00:48:32;102171.61;;;14.12;73.89
70521;BME280;58442;52.716;23.560;2022-08-07T00:50:33;102176.62;;;14.10;73.77
70521;BME280;58442;52.716;23.560;2022-08-07T00:52:34;102175.68;;;14.06;73.69
70521;BME280;58442;52.716;23.560;2022-08-07T00:54:45;102172.03;;;14.02;73.64
70521;BME280;58442;52.716;23.560;2022-08-07T00:56:47;102175.42;;;13.99;73.53
70521;BME280;58442;52.716;23.560;2022-08-07T00:58:48;102174.52;;;13.95;73.52
70521;BME280;58442;52.716;23.560;2022-08-07T01:00:50;102177.44;;;13.90;73.47
70521;BME280;58442;52.716;23.560;2022-08-07T01:03:00;102177.63;;;13.85;73.50
70521;BME280;58442;52.716;23.560;2022-08-07T01:05:03;102172.05;;;13.81;73.53
70521;BME280;58442;52.716;23.560;2022-08-07T01:07:07;102178.17;;;13.78;73.53
70521;BME280;58442;52.716;23.560;2022-08-07T01:09:08;102176.91;;;13.76;73.49
70521;BME280;58442;52.716;23.560;2022-08-07T01:11:15;102179.50;;;13.72;73.47
70521;BME280;58442;52.716;23.560;2022-08-07T01:13:17;102175.05;;;13.67;73.49
70521;BME280;58442;52.716;23.560;2022-08-07T01:15:20;102169.44;;;13.64;73.54
70521;BME280;58442;52.716;23.560;2022-08-07T01:17:21;102177.52;;;13.60;73.57
70521;BME280;58442;52.716;23.560;2022-08-07T01:19:29;102178.16;;;13.57;73.61
70521;BME280;58442;52.716;23.560;2022-08-07T01:21:30;102176.45;;;13.53;73.60
70521;BME280;58442;52.716;23.560;2022-08-07T01:23:32;102177.89;;;13.50;73.53
70521;BME280;58442;52.716;23.560;2022-08-07T01:25:34;102181.30;;;13.47;73.48
70521;BME280;58442;52.716;23.560;2022-08-07T01:27:44;102180.34;;;13.43;73.44
70521;BME280;58442;52.716;23.560;2022-08-07T01:29:45;102169.61;;;13.38;73.45
70521;BME280;58442;52.716;23.560;2022-08-07T01:31:47;102177.34;;;13.36;73.36
70521;BME280;58442;52.716;23.560;2022-08-07T01:33:48;102176.42;;;13.32;73.43
70521;BME280;58442;52.716;23.560;2022-08-07T01:35:59;102183.33;;;13.29;73.39
70521;BME280;58442;52.716;23.560;2022-08-07T01:38:01;102180.13;;;13.27;73.34
70521;BME280;58442;52.716;23.560;2022-08-07T01:40:05;102181.11;;;13.23;73.37
70521;BME280;58442;52.716;23.560;2022-08-07T01:42:06;102186.41;;;13.19;73.47
70521;BME280;58442;52.716;23.560;2022-08-07T01:44:13;102182.40;;;13.17;73.50
70521;BME280;58442;52.716;23.560;2022-08-07T01:46:16;102181.13;;;13.14;73.45
70521;BME280;58442;52.716;23.560;2022-08-07T01:48:18;102179.08;;;13.11;73.42
70521;BME280;58442;52.716;23.560;2022-08-07T01:50:20;102183.23;;;13.08;73.36
70521;BME280;58442;52.716;23.560;2022-08-07T01:52:30;102172.50;;;13.03;73.36
70521;BME280;58442;52.716;23.560;2022-08-07T01:54:35;102187.62;;;13.01;73.35
70521;BME280;58442;52.716;23.560;2022-08-07T01:58:52;102179.80;;;12.91;73.49
70521;BME280;58442;52.716;23.560;2022-08-07T02:01:02;102179.65;;;12.87;73.64
70521;BME280;58442;52.716;23.560;2022-08-07T02:03:11;102183.05;;;12.84;73.73
70521;BME280;58442;52.716;23.560;2022-08-07T02:05:22;102182.55;;;12.82;73.80
70521;BME280;58442;52.716;23.560;2022-08-07T02:07:29;102179.69;;;12.78;73.94
70521;BME280;58442;52.716;23.560;2022-08-07T02:09:31;102185.48;;;12.77;73.95
70521;BME280;58442;52.716;23.560;2022-08-07T02:11:37;102183.05;;;12.75;73.95
70521;BME280;58442;52.716;23.560;2022-08-07T02:16:05;102189.51;;;12.71;74.07
70521;BME280;58442;52.716;23.560;2022-08-07T02:18:11;102181.63;;;12.69;74.08
70521;BME280;58442;52.716;23.560;2022-08-07T02:20:13;102183.09;;;12.67;74.06
70521;BME280;58442;52.716;23.560;2022-08-07T02:22:17;102195.47;;;12.64;74.08
70521;BME280;58442;52.716;23.560;2022-08-07T02:24:24;102178.93;;;12.60;74.18
70521;BME280;58442;52.716;23.560;2022-08-07T02:26:26;102191.30;;;12.58;74.31
70521;BME280;58442;52.716;23.560;2022-08-07T02:28:30;102181.82;;;12.55;74.39
70521;BME280;58442;52.716;23.560;2022-08-07T02:30:34;102189.21;;;12.55;74.49
70521;BME280;58442;52.716;23.560;2022-08-07T02:32:36;102195.80;;;12.54;74.51
70521;BME280;58442;52.716;23.560;2022-08-07T02:34:39;102196.92;;;12.53;74.57
70521;BME280;58442;52.716;23.560;2022-08-07T02:36:43;102201.58;;;12.52;74.54
70521;BME280;58442;52.716;23.560;2022-08-07T02:38:46;102199.98;;;12.51;74.55
70521;BME280;58442;52.716;23.560;2022-08-07T02:43:04;102195.16;;;12.48;74.34
70521;BME280;58442;52.716;23.560;2022-08-07T02:45:10;102190.84;;;12.47;74.21
70521;BME280;58442;52.716;23.560;2022-08-07T02:47:19;102194.69;;;12.46;74.06
70521;BME280;58442;52.716;23.560;2022-08-07T02:49:20;102194.23;;;12.44;73.95
70521;BME280;58442;52.716;23.560;2022-08-07T02:51:23;102195.66;;;12.42;73.86
70521;BME280;58442;52.716;23.560;2022-08-07T02:53:31;102196.64;;;12.37;73.79
70521;BME280;58442;52.716;23.560;2022-08-07T02:55:38;102201.59;;;12.35;73.75
70521;BME280;58442;52.716;23.560;2022-08-07T02:57:44;102193.28;;;12.31;73.69
70521;BME280;58442;52.716;23.560;2022-08-07T02:59:47;102200.20;;;12.29;73.71
70521;BME280;58442;52.716;23.560;2022-08-07T03:01:51;102200.81;;;12.26;73.72
70521;BME280;58442;52.716;23.560;2022-08-07T03:03:53;102196.02;;;12.23;73.70
70521;BME280;58442;52.716;23.560;2022-08-07T03:05:56;102188.48;;;12.20;73.79
70521;BME280;58442;52.716;23.560;2022-08-07T03:07:58;102189.13;;;12.17;73.93
70521;BME280;58442;52.716;23.560;2022-08-07T03:10:00;102194.91;;;12.15;74.08
70521;BME280;58442;52.716;23.560;2022-08-07T03:12:06;102197.94;;;12.14;74.19
70521;BME280;58442;52.716;23.560;2022-08-07T03:14:08;102194.74;;;12.12;74.33
70521;BME280;58442;52.716;23.560;2022-08-07T03:16:10;102192.02;;;12.12;74.45
70521;BME280;58442;52.716;23.560;2022-08-07T03:18:11;102188.82;;;12.10;74.40
70521;BME280;58442;52.716;23.560;2022-08-07T03:20:20;102189.77;;;12.05;74.54
70521;BME280;58442;52.716;23.560;2022-08-07T03:22:23;102201.33;;;12.02;74.74
70521;BME280;58442;52.716;23.560;2022-08-07T03:24:25;102193.45;;;12.00;74.81
70521;BME280;58442;52.716;23.560;2022-08-07T03:26:30;102196.50;;;11.99;74.86
70521;BME280;58442;52.716;23.560;2022-08-07T03:28:35;102195.70;;;11.98;74.95
70521;BME280;58442;52.716;23.560;2022-08-07T03:30:39;102188.66;;;11.97;75.08
70521;BME280;58442;52.716;23.560;2022-08-07T03:32:42;102192.51;;;11.96;75.11
70521;BME280;58442;52.716;23.560;2022-08-07T03:34:45;102187.85;;;11.97;75.17
70521;BME280;58442;52.716;23.560;2022-08-07T03:39:16;102190.25;;;11.98;75.18
70521;BME280;58442;52.716;23.560;2022-08-07T03:41:18;102187.53;;;11.98;75.24
70521;BME280;58442;52.716;23.560;2022-08-07T03:43:20;102195.70;;;11.98;75.28
70521;BME280;58442;52.716;23.560;2022-08-07T03:45:23;102202.75;;;11.99;75.28
70521;BME280;58442;52.716;23.560;2022-08-07T03:47:26;102194.57;;;11.99;75.28
70521;BME280;58442;52.716;23.560;2022-08-07T03:49:29;102195.08;;;12.01;75.26
70521;BME280;58442;52.716;23.560;2022-08-07T03:51:32;102198.27;;;12.03;75.21
70521;BME280;58442;52.716;23.560;2022-08-07T03:53:36;102201.80;;;12.04;75.22
70521;BME280;58442;52.716;23.560;2022-08-07T03:55:41;102197.48;;;12.03;75.26
70521;BME280;58442;52.716;23.560;2022-08-07T03:57:44;102206.45;;;12.03;75.36
70521;BME280;58442;52.716;23.560;2022-08-07T03:59:45;102204.53;;;12.04;75.40
70521;BME280;58442;52.716;23.560;2022-08-07T04:01:47;102204.20;;;12.05;75.39
70521;BME280;58442;52.716;23.560;2022-08-07T04:03:55;102203.07;;;12.07;75.46
70521;BME280;58442;52.716;23.560;2022-08-07T04:05:56;102204.67;;;12.08;75.47
70521;BME280;58442;52.716;23.560;2022-08-07T04:07:57;102208.52;;;12.07;75.52
70521;BME280;58442;52.716;23.560;2022-08-07T04:09:59;102206.29;;;12.09;75.57
70521;BME280;58442;52.716;23.560;2022-08-07T04:12:11;102206.77;;;12.11;75.59
70521;BME280;58442;52.716;23.560;2022-08-07T04:14:13;102214.95;;;12.11;75.64
70521;BME280;58442;52.716;23.560;2022-08-07T04:16:15;102223.59;;;12.13;75.66
70521;BME280;58442;52.716;23.560;2022-08-07T04:18:16;102224.72;;;12.12;75.69
70521;BME280;58442;52.716;23.560;2022-08-07T04:20:25;102219.74;;;12.14;75.71
70521;BME280;58442;52.716;23.560;2022-08-07T04:22:26;102227.62;;;12.15;75.78
70521;BME280;58442;52.716;23.560;2022-08-07T04:24:28;102224.57;;;12.17;75.83
70521;BME280;58442;52.716;23.560;2022-08-07T04:26:29;102222.31;;;12.19;75.86
70521;BME280;58442;52.716;23.560;2022-08-07T04:28:41;102226.30;;;12.21;75.94
70521;BME280;58442;52.716;23.560;2022-08-07T04:30:47;102219.42;;;12.24;76.00
70521;BME280;58442;52.716;23.560;2022-08-07T04:32:49;102223.42;;;12.26;75.99
70521;BME280;58442;52.716;23.560;2022-08-07T04:37:16;102223.60;;;12.30;76.10
70521;BME280;58442;52.716;23.560;2022-08-07T04:39:17;102229.05;;;12.30;76.18
70521;BME280;58442;52.716;23.560;2022-08-07T04:41:18;102229.84;;;12.30;76.27
70521;BME280;58442;52.716;23.560;2022-08-07T04:43:25;102234.97;;;12.32;76.33
70521;BME280;58442;52.716;23.560;2022-08-07T04:45:37;102241.70;;;12.35;76.40
70521;BME280;58442;52.716;23.560;2022-08-07T04:47:53;102236.41;;;12.38;76.41
70521;BME280;58442;52.716;23.560;2022-08-07T04:50:13;102242.34;;;12.40;76.46
70521;BME280;58442;52.716;23.560;2022-08-07T04:57:04;102241.69;;;12.52;76.60
70521;BME280;58442;52.716;23.560;2022-08-07T04:59:41;102239.93;;;12.56;76.66
70521;BME280;58442;52.716;23.560;2022-08-07T05:01:48;102251.45;;;12.62;76.70
70521;BME280;58442;52.716;23.560;2022-08-07T05:04:11;102249.02;;;12.69;76.70
70521;BME280;58442;52.716;23.560;2022-08-07T05:06:24;102248.06;;;12.73;76.71
70521;BME280;58442;52.716;23.560;2022-08-07T05:08:41;102245.97;;;12.79;76.81
70521;BME280;58442;52.716;23.560;2022-08-07T05:10:51;102248.53;;;12.84;76.84
70521;BME280;58442;52.716;23.560;2022-08-07T05:13:02;102258.12;;;12.90;76.81
70521;BME280;58442;52.716;23.560;2022-08-07T05:15:09;102257.95;;;12.95;76.83
70521;BME280;58442;52.716;23.560;2022-08-07T05:17:18;102263.57;;;12.99;76.90
70521;BME280;58442;52.716;23.560;2022-08-07T05:19:36;102256.31;;;13.03;77.12
70521;BME280;58442;52.716;23.560;2022-08-07T05:21:44;102260.47;;;13.09;77.04
70521;BME280;58442;52.716;23.560;2022-08-07T05:26:01;102265.41;;;13.24;76.94
70521;BME280;58442;52.716;23.560;2022-08-07T05:28:04;102275.03;;;13.30;76.88
70521;BME280;58442;52.716;23.560;2022-08-07T05:30:14;102272.92;;;13.36;76.87
70521;BME280;58442;52.716;23.560;2022-08-07T05:32:18;102276.27;;;13.41;76.86
70521;BME280;58442;52.716;23.560;2022-08-07T05:34:22;102278.34;;;13.45;76.92
70521;BME280;58442;52.716;23.560;2022-08-07T05:36:26;102280.09;;;13.49;76.93
70521;BME280;58442;52.716;23.560;2022-08-07T05:38:28;102281.84;;;13.54;76.93
70521;BME280;58442;52.716;23.560;2022-08-07T05:40:29;102285.65;;;13.61;76.92
70521;BME280;58442;52.716;23.560;2022-08-07T05:42:31;102277.75;;;13.68;76.89
70521;BME280;58442;52.716;23.560;2022-08-07T05:44:34;102282.69;;;13.75;76.85
70521;BME280;58442;52.716;23.560;2022-08-07T05:46:42;102286.03;;;13.81;76.85
70521;BME280;58442;52.716;23.560;2022-08-07T05:48:44;102282.29;;;13.85;76.86
70521;BME280;58442;52.716;23.560;2022-08-07T05:50:46;102276.97;;;13.89;76.82
70521;BME280;58442;52.716;23.560;2022-08-07T05:52:48;102277.59;;;13.94;76.77
70521;BME280;58442;52.716;23.560;2022-08-07T05:54:57;102277.05;;;14.01;76.72
70521;BME280;58442;52.716;23.560;2022-08-07T05:56:58;102275.73;;;14.07;76.66
70521;BME280;58442;52.716;23.560;2022-08-07T05:59:04;102280.17;;;14.12;76.58
70521;BME280;58442;52.716;23.560;2022-08-07T06:01:11;102276.45;;;14.16;76.56
70521;BME280;58442;52.716;23.560;2022-08-07T06:03:13;102277.86;;;14.22;76.48
70521;BME280;58442;52.716;23.560;2022-08-07T06:05:16;102274.59;;;14.29;76.42
70521;BME280;58442;52.716;23.560;2022-08-07T06:07:18;102279.03;;;14.34;76.33
70521;BME280;58442;52.716;23.560;2022-08-07T06:09:20;102284.30;;;14.39;76.21
70521;BME280;58442;52.716;23.560;2022-08-07T06:11:27;102276.70;;;14.44;76.13
70521;BME280;58442;52.716;23.560;2022-08-07T06:13:28;102291.80;;;14.50;76.04
70521;BME280;58442;52.716;23.560;2022-08-07T06:15:30;102279.86;;;14.55;75.96
70521;BME280;58442;52.716;23.560;2022-08-07T06:17:34;102282.05;;;14.62;75.88
70521;BME280;58442;52.716;23.560;2022-08-07T06:19:42;102275.69;;;14.70;75.77
70521;BME280;58442;52.716;23.560;2022-08-07T06:21:44;102273.53;;;14.75;75.65
70521;BME280;58442;52.716;23.560;2022-08-07T06:23:45;102269.11;;;14.83;75.52
70521;BME280;58442;52.716;23.560;2022-08-07T06:25:47;102265.02;;;14.89;75.39
70521;BME280;58442;52.716;23.560;2022-08-07T06:28:04;102266.05;;;14.97;75.29
70521;BME280;58442;52.716;23.560;2022-08-07T06:30:07;102272.23;;;15.06;75.16
70521;BME280;58442;52.716;23.560;2022-08-07T06:32:08;102268.93;;;15.13;75.03
70521;BME280;58442;52.716;23.560;2022-08-07T06:34:09;102266.08;;;15.21;74.91
70521;BME280;58442;52.716;23.560;2022-08-07T06:36:12;102266.79;;;15.30;74.74
70521;BME280;58442;52.716;23.560;2022-08-07T06:38:13;102271.34;;;15.39;74.56
70521;BME280;58442;52.716;23.560;2022-08-07T06:40:16;102274.77;;;15.48;74.40
70521;BME280;58442;52.716;23.560;2022-08-07T06:42:26;102268.01;;;15.57;74.25
70521;BME280;58442;52.716;23.560;2022-08-07T06:44:30;102270.77;;;15.70;74.00
70521;BME280;58442;52.716;23.560;2022-08-07T06:46:32;102272.27;;;15.79;73.80
70521;BME280;58442;52.716;23.560;2022-08-07T06:48:34;102277.70;;;15.92;73.64
70521;BME280;58442;52.716;23.560;2022-08-07T06:50:38;102280.90;;;16.06;73.43
70521;BME280;58442;52.716;23.560;2022-08-07T06:52:47;102282.80;;;16.18;73.20
70521;BME280;58442;52.716;23.560;2022-08-07T06:54:52;102282.05;;;16.33;72.95
70521;BME280;58442;52.716;23.560;2022-08-07T06:56:54;102279.73;;;16.47;72.66
70521;BME280;58442;52.716;23.560;2022-08-07T06:58:56;102266.29;;;16.58;72.38
70521;BME280;58442;52.716;23.560;2022-08-07T07:00:58;102279.98;;;16.70;72.14
70521;BME280;58442;52.716;23.560;2022-08-07T07:03:01;102272.38;;;16.79;71.90
70521;BME280;58442;52.716;23.560;2022-08-07T07:07:21;102269.03;;;17.02;71.31
70521;BME280;58442;52.716;23.560;2022-08-07T07:09:24;102272.86;;;17.13;71.12
70521;BME280;58442;52.716;23.560;2022-08-07T07:11:33;102267.17;;;17.21;70.89
70521;BME280;58442;52.716;23.560;2022-08-07T07:13:43;102268.51;;;17.28;70.79
70521;BME280;58442;52.716;23.560;2022-08-07T07:18:16;102271.52;;;17.38;70.40
70521;BME280;58442;52.716;23.560;2022-08-07T07:20:22;102268.74;;;17.54;70.02
70521;BME280;58442;52.716;23.560;2022-08-07T07:22:27;102269.35;;;17.63;69.79
70521;BME280;58442;52.716;23.560;2022-08-07T07:24:37;102264.85;;;17.71;69.58
70521;BME280;58442;52.716;23.560;2022-08-07T07:26:40;102271.46;;;17.70;69.47
70521;BME280;58442;52.716;23.560;2022-08-07T07:28:56;102271.02;;;17.68;69.36
70521;BME280;58442;52.716;23.560;2022-08-07T07:33:11;102262.76;;;17.84;68.84
70521;BME280;58442;52.716;23.560;2022-08-07T07:35:14;102267.49;;;18.02;68.49
70521;BME280;58442;52.716;23.560;2022-08-07T07:37:17;102258.83;;;18.20;68.13
70521;BME280;58442;52.716;23.560;2022-08-07T07:39:20;102256.28;;;18.30;67.86
70521;BME280;58442;52.716;23.560;2022-08-07T07:41:23;102259.44;;;18.52;67.34
70521;BME280;58442;52.716;23.560;2022-08-07T07:43:29;102256.98;;;18.66;66.97
70521;BME280;58442;52.716;23.560;2022-08-07T07:45:31;102259.64;;;18.82;66.52
70521;BME280;58442;52.716;23.560;2022-08-07T07:47:36;102258.43;;;19.02;66.00
70521;BME280;58442;52.716;23.560;2022-08-07T07:49:42;102255.34;;;19.07;65.84
70521;BME280;58442;52.716;23.560;2022-08-07T07:51:47;102255.60;;;19.22;65.43
70521;BME280;58442;52.716;23.560;2022-08-07T07:53:49;102254.10;;;19.28;65.29
70521;BME280;58442;52.716;23.560;2022-08-07T07:55:55;102252.41;;;19.46;64.82
70521;BME280;58442;52.716;23.560;2022-08-07T07:58:00;102254.69;;;19.63;64.52
70521;BME280;58442;52.716;23.560;2022-08-07T08:00:04;102253.92;;;19.66;64.44
70521;BME280;58442;52.716;23.560;2022-08-07T08:02:08;102261.80;;;19.64;64.36
70521;BME280;58442;52.716;23.560;2022-08-07T08:04:11;102250.86;;;19.72;63.98
70521;BME280;58442;52.716;23.560;2022-08-07T08:06:14;102251.75;;;19.79;63.55
70521;BME280;58442;52.716;23.560;2022-08-07T08:08:16;102259.84;;;19.95;63.17
70521;BME280;58442;52.716;23.560;2022-08-07T08:10:18;102259.11;;;19.98;62.94
70521;BME280;58442;52.716;23.560;2022-08-07T08:12:21;102263.77;;;19.94;62.96
70521;BME280;58442;52.716;23.560;2022-08-07T08:14:23;102258.93;;;20.17;62.33
70521;BME280;58442;52.716;23.560;2022-08-07T08:16:38;102257.10;;;20.29;62.11
70521;BME280;58442;52.716;23.560;2022-08-07T08:18:53;102256.85;;;20.41;61.73
70521;BME280;58442;52.716;23.560;2022-08-07T08:20:58;102256.55;;;20.46;61.51
70521;BME280;58442;52.716;23.560;2022-08-07T08:23:02;102256.70;;;20.60;61.10
70521;BME280;58442;52.716;23.560;2022-08-07T08:25:17;102266.88;;;20.53;61.13
70521;BME280;58442;52.716;23.560;2022-08-07T08:27:36;102267.59;;;20.46;61.13
70521;BME280;58442;52.716;23.560;2022-08-07T08:29:57;102265.52;;;20.73;60.48
70521;BME280;58442;52.716;23.560;2022-08-07T08:32:03;102258.80;;;20.74;60.46
70521;BME280;58442;52.716;23.560;2022-08-07T08:34:10;102261.12;;;20.68;60.47
70521;BME280;58442;52.716;23.560;2022-08-07T08:36:13;102257.58;;;20.71;60.36
70521;BME280;58442;52.716;23.560;2022-08-07T08:38:18;102257.95;;;20.66;60.10
70521;BME280;58442;52.716;23.560;2022-08-07T08:40:30;102261.26;;;20.83;59.59
70521;BME280;58442;52.716;23.560;2022-08-07T08:42:42;102266.71;;;20.75;59.68
70521;BME280;58442;52.716;23.560;2022-08-07T08:44:53;102261.06;;;20.65;59.79
70521;BME280;58442;52.716;23.560;2022-08-07T08:47:32;102267.38;;;20.65;59.63
70521;BME280;58442;52.716;23.560;2022-08-07T08:51:38;102262.04;;;20.83;58.95
70521;BME280;58442;52.716;23.560;2022-08-07T08:55:57;102264.07;;;20.86;58.90
70521;BME280;58442;52.716;23.560;2022-08-07T08:58:07;102271.02;;;21.17;58.25
70521;BME280;58442;52.716;23.560;2022-08-07T09:00:16;102259.41;;;21.42;57.50
70521;BME280;58442;52.716;23.560;2022-08-07T09:22:53;102267.96;;;21.88;55.70
70521;BME280;58442;52.716;23.560;2022-08-07T09:25:11;102261.34;;;22.03;55.33
70521;BME280;58442;52.716;23.560;2022-08-07T09:34:07;102249.69;;;22.81;54.02
70521;BME280;58442;52.716;23.560;2022-08-07T09:36:19;102254.84;;;22.76;54.11
70521;BME280;58442;52.716;23.560;2022-08-07T09:38:35;102249.27;;;22.58;54.34
70521;BME280;58442;52.716;23.560;2022-08-07T09:47:53;102238.95;;;22.48;53.99
70521;BME280;58442;52.716;23.560;2022-08-07T09:52:34;102235.43;;;22.83;53.23
70521;BME280;58442;52.716;23.560;2022-08-07T09:54:48;102232.69;;;22.97;52.92
70521;BME280;58442;52.716;23.560;2022-08-07T09:59:21;102220.79;;;23.29;52.18
70521;BME280;58442;52.716;23.560;2022-08-07T10:05:54;102227.95;;;23.08;52.30
70521;BME280;58442;52.716;23.560;2022-08-07T10:26:50;102212.63;;;24.06;49.75
70521;BME280;58442;52.716;23.560;2022-08-07T10:31:36;102200.02;;;23.90;49.81
70521;BME280;58442;52.716;23.560;2022-08-07T10:41:05;102200.64;;;24.23;48.94
70521;BME280;58442;52.716;23.560;2022-08-07T10:43:18;102192.27;;;24.26;48.82
70521;BME280;58442;52.716;23.560;2022-08-07T10:45:30;102204.55;;;24.29;48.68
70521;BME280;58442;52.716;23.560;2022-08-07T10:52:01;102207.07;;;24.09;49.14
70521;BME280;58442;52.716;23.560;2022-08-07T10:54:19;102201.44;;;24.20;48.91
70521;BME280;58442;52.716;23.560;2022-08-07T11:10:42;102191.38;;;23.53;49.65
70521;BME280;58442;52.716;23.560;2022-08-07T11:14:55;102187.42;;;23.64;49.22
70521;BME280;58442;52.716;23.560;2022-08-07T11:19:16;102177.80;;;23.87;48.94
70521;BME280;58442;52.716;23.560;2022-08-07T11:23:46;102177.30;;;24.10;48.48
70521;BME280;58442;52.716;23.560;2022-08-07T11:26:10;102178.14;;;23.99;48.66
70521;BME280;58442;52.716;23.560;2022-08-07T11:28:27;102176.60;;;23.88;48.81
70521;BME280;58442;52.716;23.560;2022-08-07T11:37:19;102183.08;;;24.44;47.59
70521;BME280;58442;52.716;23.560;2022-08-07T11:41:41;102181.41;;;24.53;47.64
70521;BME280;58442;52.716;23.560;2022-08-07T11:46:27;102179.10;;;24.41;47.64
70521;BME280;58442;52.716;23.560;2022-08-07T11:48:59;102175.42;;;24.55;47.19
70521;BME280;58442;52.716;23.560;2022-08-07T11:51:08;102174.68;;;24.51;47.27
70521;BME280;58442;52.716;23.560;2022-08-07T11:55:47;102175.32;;;24.07;48.06
70521;BME280;58442;52.716;23.560;2022-08-07T12:07:33;102174.73;;;23.56;48.39
70521;BME280;58442;52.716;23.560;2022-08-07T12:09:53;102173.13;;;23.66;48.08
70521;BME280;58442;52.716;23.560;2022-08-07T12:16:26;102157.86;;;24.06;47.13
70521;BME280;58442;52.716;23.560;2022-08-07T12:18:36;102164.48;;;24.26;46.79
70521;BME280;58442;52.716;23.560;2022-08-07T12:20:51;102170.50;;;24.18;47.05
70521;BME280;58442;52.716;23.560;2022-08-07T12:25:24;102170.30;;;23.80;47.55
70521;BME280;58442;52.716;23.560;2022-08-07T12:27:45;102171.96;;;23.63;47.77
70521;BME280;58442;52.716;23.560;2022-08-07T12:30:03;102164.42;;;23.57;47.74
70521;BME280;58442;52.716;23.560;2022-08-07T12:34:19;102169.23;;;23.42;47.86
70521;BME280;58442;52.716;23.560;2022-08-07T12:36:22;102166.47;;;23.31;47.91
70521;BME280;58442;52.716;23.560;2022-08-07T12:38:26;102162.95;;;23.20;48.09
70521;BME280;58442;52.716;23.560;2022-08-07T12:40:33;102164.55;;;23.14;48.09
70521;BME280;58442;52.716;23.560;2022-08-07T12:42:38;102161.35;;;23.12;48.20
70521;BME280;58442;52.716;23.560;2022-08-07T12:44:43;102154.62;;;23.06;48.21
70521;BME280;58442;52.716;23.560;2022-08-07T12:49:12;102160.95;;;22.85;48.50
70521;BME280;58442;52.716;23.560;2022-08-07T12:51:26;102162.56;;;22.68;48.68
70521;BME280;58442;52.716;23.560;2022-08-07T12:53:39;102158.98;;;22.57;48.74
70521;BME280;58442;52.716;23.560;2022-08-07T12:58:01;102140.38;;;22.82;48.44
70521;BME280;58442;52.716;23.560;2022-08-07T13:00:06;102134.05;;;23.00;48.32
70521;BME280;58442;52.716;23.560;2022-08-07T13:07:05;102118.02;;;23.54;47.48
70521;BME280;58442;52.716;23.560;2022-08-07T13:14:06;102114.25;;;23.99;47.05
70521;BME280;58442;52.716;23.560;2022-08-07T13:16:46;102107.99;;;23.88;47.23
70521;BME280;58442;52.716;23.560;2022-08-07T13:28:17;102113.45;;;23.01;48.00
70521;BME280;58442;52.716;23.560;2022-08-07T13:30:27;102109.51;;;22.87;48.22
70521;BME280;58442;52.716;23.560;2022-08-07T13:33:25;102107.91;;;22.90;48.20
70521;BME280;58442;52.716;23.560;2022-08-07T13:34:50;102097.58;;;23.05;47.79
70521;BME280;58442;52.716;23.560;2022-08-07T13:36:57;102098.33;;;23.19;47.59
70521;BME280;58442;52.716;23.560;2022-08-07T13:39:08;102087.59;;;23.32;47.37
70521;BME280;58442;52.716;23.560;2022-08-07T13:41:26;102089.88;;;23.52;47.24
70521;BME280;58442;52.716;23.560;2022-08-07T13:43:33;102093.00;;;23.71;47.03
70521;BME280;58442;52.716;23.560;2022-08-07T13:45:57;102096.90;;;23.81;46.87
70521;BME280;58442;52.716;23.560;2022-08-07T13:48:00;102092.08;;;23.92;46.89
70521;BME280;58442;52.716;23.560;2022-08-07T13:50:04;102096.14;;;23.77;47.28
70521;BME280;58442;52.716;23.560;2022-08-07T13:52:08;102094.23;;;23.63;47.43
70521;BME280;58442;52.716;23.560;2022-08-07T13:54:12;102089.10;;;23.51;47.61
70521;BME280;58442;52.716;23.560;2022-08-07T13:56:16;102091.47;;;23.53;47.53
70521;BME280;58442;52.716;23.560;2022-08-07T13:58:19;102090.68;;;23.52;47.47